Decoded Metar for PAIN (MCKINLEY PARK in AK, USA) (IATA:INR) | Meteo·Mobile Aviation Weather
aviador You're here:

PAIN Decoded Metar

MCKINLEY PARK in AK, USA
Report Time2018-09-18 14:56:00
UTC Time2018-09-18 15:16:22
Flight Rules vfr VFR
WindCalm
Visibility9999 m
Phenomena:N/A
Clouds:Overcast 065 Hf
Expected CloudBase > 400 ft AGL from Temp-Dew spread
Ceiling6,500 ft
Temp07°C (ISA -5)
Dew Point06°C (93% RH)
AAT6.1°C
QNH1022 hPa
Density Alt997 ft
Elevation1,719 ft
Report Wrong Elevation
Raw Report
PAIN 181456Z AUTO 00000KT 10SM OVC065 07/06 A3018 RMK AO2 SLP241
60000 T00670056 53006=

Extra information for PAIN:More info

Metar Taf Metar & Taf Last 4 Metars F.Rules Stats Wind Profile Meteogram Temp Stats Airport Information Weather charts Add Link Nearby VenuesMetar ALERT Operation Metar Decoded Social comments

AIRNAV info for PAIN